Date,TemperatureHighF,TemperatureAvgF,TemperatureLowF,DewpointHighF,DewpointAvgF,DewpointLowF,HumidityHigh,HumidityAvg,HumidityLow,PressureMaxIn,PressureMinIn,WindSpeedMaxMPH,WindSpeedAvgMPH,GustSpeedMaxMPH,PrecipitationSumIn
2014-1-1,48.7,35.0,23.9,43.2,30.8,21.1,92,84,81,29.41,29.15,10,2,10,0.35
2014-1-2,36.7,23.4,8.4,32.3,21.4,6.4,100,92,82,29.38,28.97,11,2,12,0.35
2014-1-3,27.9,10.5,-2.2,23.4,7.9,-4.0,92,89,83,29.59,29.35,9,1,10,0.35
2014-1-4,41.5,27.6,12.2,36.0,23.3,9.1,87,84,81,29.35,29.18,17,5,17,0.00
2014-1-5,44.2,35.5,22.8,40.1,32.9,20.9,100,91,82,29.21,28.64,17,2,17,0.55
2014-1-6,22.8,-0.8,-9.0,21.1,-3.2,-11.4,93,89,89,29.50,28.88,17,6,19,0.00
2014-1-7,12.7,2.4,-8.5,9.8,-0.1,-10.9,89,89,89,29.59,29.47,13,5,13,0.00
2014-1-8,33.1,20.3,8.1,28.5,16.7,5.5,89,86,83,29.59,29.47,10,2,10,0.00
2014-1-9,37.6,30.2,20.3,33.2,26.9,17.8,98,88,81,29.62,29.41,8,1,9,0.00
2014-1-10,50.7,41.5,32.7,48.3,40.7,32.2,100,97,89,29.41,28.88,12,2,12,0.04
2014-1-11,53.4,44.7,35.2,51.4,42.5,31.8,100,92,83,28.97,28.67,16,5,16,0.67
2014-1-12,46.9,38.7,33.3,41.7,34.9,30.1,94,86,82,29.21,28.94,15,4,18,0.00
2014-1-13,52.3,47.8,44.1,47.8,44.2,39.2,100,88,81,29.03,28.85,22,6,23,0.12
2014-1-14,50.4,39.2,28.6,44.8,36.1,25.7,100,89,81,29.09,28.91,15,3,17,0.00
2014-1-15,30.2,25.8,21.6,25.7,21.8,18.3,87,85,83,29.23,29.06,15,2,15,0.00
2014-1-16,30.4,24.5,16.2,28.5,21.1,13.2,94,87,84,29.18,28.88,14,5,15,0.00
2014-1-17,32.2,21.9,9.7,32.2,19.9,6.6,100,92,84,29.21,28.88,13,2,13,0.00
2014-1-18,29.5,20.4,10.2,25.0,17.5,7.1,97,89,83,29.18,28.91,13,4,13,0.00
2014-1-19,36.7,29.3,22.6,31.7,26.6,19.4,100,90,82,29.12,28.88,17,5,17,0.00
2014-1-20,46.6,37.5,31.8,41.4,33.2,28.7,95,84,82,29.06,28.85,15,3,15,0.00
2014-1-21,31.8,15.5,-1.7,31.5,13.4,-4.8,100,91,86,29.29,28.91,20,3,20,0.00
2014-1-22,15.8,6.4,-5.8,14.4,3.3,-8.9,94,87,86,29.29,29.15,14,2,14,0.00
2014-1-23,13.5,5.4,-0.6,11.6,3.5,-2.3,92,92,92,29.71,29.18,13,3,13,0.00
2014-1-24,21.2,9.4,-3.8,17.4,6.7,-5.6,92,89,85,29.71,28.97,20,6,22,0.00
2014-1-25,38.5,22.2,10.0,32.8,19.1,6.9,94,88,81,29.06,28.67,21,7,24,0.00
2014-1-26,46.9,27.1,8.2,41.7,23.0,5.2,87,85,81,29.06,28.70,15,4,15,0.00
2014-1-27,41.9,11.9,-1.3,37.0,8.5,-4.5,87,86,83,29.53,28.73,19,5,19,0.00
2014-1-28,14.0,-0.0,-11.7,10.7,-3.1,-14.7,87,86,86,29.59,29.44,6,0,6,0.00
2014-1-29,25.9,11.5,-1.8,21.7,8.1,-4.8,87,86,84,29.47,29.38,13,3,14,0.00
2014-1-30,35.8,24.9,12.6,30.8,20.9,9.4,87,84,82,29.38,29.06,17,6,17,0.00
2014-1-31,45.9,37.0,33.3,40.7,32.1,28.7,83,82,81,29.26,29.15,11,2,11,0.00
2014-2-1,59.7,46.0,34.5,53.2,40.7,29.6,88,82,79,29.21,28.97,14,3,14,0.00
2014-2-2,47.3,32.2,27.0,45.2,30.7,23.9,100,94,88,29.35,29.09,9,2,10,0.16
2014-2-3,36.7,27.1,20.3,31.7,23.3,16.5,89,86,82,29.47,29.23,10,2,10,0.00
2014-2-4,27.3,21.6,19.8,26.6,18.9,16.5,97,89,87,29.50,29.00,15,2,15,0.00
2014-2-5,30.4,26.4,22.6,30.4,24.8,20.1,100,93,86,29.47,28.85,10,1,13,0.00
2014-2-6,30.0,19.0,7.7,25.5,15.6,4.7,92,87,83,29.56,29.47,10,1,10,0.00
2014-2-7,27.9,10.3,-2.4,23.4,7.1,-5.3,87,86,83,29.59,29.47,8,0,8,0.00
2014-2-8,36.9,20.3,10.2,31.9,16.7,7.1,89,86,82,29.47,29.26,6,0,8,0.00
2014-2-9,33.3,25.4,17.2,28.7,22.3,13.8,98,88,83,29.35,29.21,11,1,11,0.00
2014-2-10,27.0,14.6,5.0,22.5,11.2,2.0,87,86,83,29.50,29.35,6,0,6,0.00
2014-2-11,27.5,10.9,-2.2,23.0,7.6,-5.1,87,86,83,29.59,29.47,6,1,6,0.00
2014-2-12,39.9,18.9,-0.2,34.6,15.0,-3.2,87,85,81,29.50,29.12,8,0,8,0.04
2014-2-13,53.8,29.7,10.8,47.8,25.3,7.7,87,84,80,29.12,28.76,10,2,10,0.12
2014-2-14,33.8,29.3,20.1,29.0,25.7,17.7,95,86,82,28.94,28.76,15,3,15,0.00
2014-2-15,36.3,23.5,14.5,31.4,19.8,11.9,93,86,82,29.23,28.91,10,3,10,0.00
2014-2-16,31.8,25.5,21.2,27.1,22.0,17.4,93,87,83,29.41,29.09,11,2,11,0.00
2014-2-17,37.0,27.0,14.5,37.0,23.8,11.9,100,88,82,29.41,28.85,23,4,23,0.24
2014-2-18,58.5,44.7,35.1,52.0,39.7,31.0,87,83,79,29.26,28.94,19,5,19,0.00
2014-2-19,54.1,45.1,37.2,48.1,40.5,32.8,91,84,80,29.23,28.85,13,4,14,0.04
2014-2-20,67.3,52.0,37.4,59.8,46.4,33.0,97,82,77,29.18,28.67,22,6,22,0.63
2014-2-21,49.3,41.5,36.0,48.8,36.8,31.6,99,83,81,29.12,28.73,24,7,24,0.12
2014-2-22,64.0,47.8,37.0,57.0,42.1,32.1,84,81,78,29.21,29.06,14,5,14,0.12
2014-2-23,41.5,33.4,24.4,36.0,29.6,20.3,92,86,81,29.32,29.15,8,2,10,0.00
2014-2-24,37.4,27.7,19.4,32.2,21.9,15.6,85,79,63,29.41,29.29,11,3,11,0.00
2014-2-25,34.5,26.8,21.2,24.7,17.4,12.0,70,67,63,29.32,29.21,9,2,9,0.00
2014-2-26,29.5,19.0,9.1,20.2,10.9,2.0,72,70,68,29.32,29.00,14,4,14,0.00
2014-2-27,31.6,19.9,10.8,22.3,11.7,3.5,72,70,68,29.29,28.88,17,5,17,0.00
2014-2-28,45.3,23.6,8.2,35.0,15.0,1.1,72,69,65,29.38,29.21,11,2,11,0.00
2014-3-1,58.3,42.2,28.9,46.2,31.9,19.7,68,67,64,29.32,29.21,11,3,11,0.00
2014-3-2,36.5,25.2,15.6,26.6,18.8,9.0,79,76,67,29.35,29.23,10,4,10,0.00
2014-3-3,28.4,15.9,8.8,18.9,8.3,1.6,76,71,68,29.53,29.32,15,4,15,0.00
2014-3-4,46.8,23.3,5.4,35.1,14.6,-1.7,72,69,64,29.50,29.29,8,1,8,0.12
2014-3-5,41.9,28.3,18.1,31.4,19.3,10.0,75,69,66,29.47,29.29,12,3,14,0.08
2014-3-6,52.5,33.2,19.8,41.5,23.8,11.6,70,68,66,29.44,29.21,8,2,10,0.00
2014-3-7,68.4,44.5,25.0,54.8,34.2,16.9,71,67,62,29.21,29.09,8,1,8,0.00
2014-3-8,60.8,45.0,33.8,48.4,34.8,24.9,70,67,64,29.29,29.12,9,3,9,0.00
2014-3-9,55.6,38.5,29.5,44.0,29.5,21.8,84,70,65,29.41,29.15,14,2,14,0.00
2014-3-10,65.1,49.4,36.7,52.2,38.4,26.9,69,66,63,29.15,28.88,16,6,16,0.00
2014-3-11,78.8,62.0,48.6,63.8,49.5,37.7,66,64,60,28.91,28.70,13,4,13,0.00
2014-3-12,59.9,38.5,20.1,53.8,31.6,11.9,100,76,64,29.15,28.41,13,4,14,0.35
2014-3-13,44.6,28.4,14.2,33.1,19.4,7.4,76,69,65,29.35,29.15,11,4,12,0.00
2014-3-14,64.4,49.9,34.2,51.5,38.8,24.4,78,66,63,29.21,28.91,28,8,28,0.04
2014-3-15,69.1,49.6,39.0,55.5,38.9,29.5,79,67,62,29.23,29.06,13,3,13,0.04
2014-3-16,39.4,31.1,24.3,29.7,21.8,15.6,70,68,67,29.26,29.12,21,7,21,0.00
2014-3-17,41.2,30.5,21.9,30.5,21.2,13.6,70,68,66,29.12,28.97,12,3,12,0.00
2014-3-18,62.6,44.0,27.1,50.1,33.9,19.0,76,68,63,29.12,28.97,14,3,16,0.00
2014-3-19,57.4,47.9,37.9,45.3,39.0,28.7,82,71,64,29.18,28.91,19,7,19,0.31
2014-3-20,56.3,44.4,33.1,44.7,34.2,23.7,70,67,65,29.26,29.15,13,4,13,0.00
2014-3-21,72.5,55.1,38.5,58.3,43.5,29.2,69,65,61,29.18,28.97,13,4,17,0.00
2014-3-22,57.2,47.3,35.8,45.4,36.7,25.9,69,66,64,29.32,28.97,20,4,20,0.00
2014-3-23,45.3,34.4,25.2,33.6,24.8,16.4,70,68,65,29.44,29.29,13,4,13,0.00
2014-3-24,46.6,31.3,19.2,36.0,22.0,11.1,70,68,65,29.47,29.23,9,1,9,0.00
2014-3-25,39.9,30.2,23.0,29.3,21.0,14.5,76,68,66,29.32,29.12,17,3,17,0.00
2014-3-26,55.0,31.7,13.8,43.3,22.3,6.5,72,68,65,29.50,29.32,9,2,10,0.00
2014-3-27,61.7,45.4,30.6,49.4,34.7,21.1,68,66,64,29.35,28.94,20,6,26,0.00
2014-3-28,66.2,52.1,42.8,52.8,42.1,33.7,81,69,62,29.23,28.91,20,6,22,0.08
2014-3-29,43.3,37.9,33.3,39.0,32.5,26.4,100,81,70,29.26,29.06,16,4,16,0.98
2014-3-30,65.7,41.2,27.5,52.7,32.1,21.5,79,70,63,29.35,29.26,9,1,9,0.00
2014-3-31,73.6,53.5,32.7,59.3,42.1,24.0,73,65,61,29.35,29.12,10,1,11,0.00
2014-4-1,78.3,64.2,52.3,63.2,51.3,41.2,66,63,60,29.23,29.06,23,5,23,0.00
2014-4-2,63.5,50.9,44.1,52.7,44.5,36.7,100,80,63,29.29,29.15,9,1,9,0.67
2014-4-3,66.6,56.4,51.4,62.1,53.7,51.4,100,92,68,29.18,28.85,13,2,13,1.30
2014-4-4,65.8,53.0,40.5,58.5,46.4,30.8,100,79,66,29.15,28.67,22,6,22,0.94
2014-4-5,68.2,44.0,36.9,54.7,33.9,27.7,69,67,62,29.32,29.15,17,3,19,0.00
2014-4-6,66.2,47.9,31.3,52.9,37.6,24.9,78,68,62,29.32,29.06,10,1,10,0.00
2014-4-7,56.7,50.1,43.3,54.7,44.7,37.1,100,83,66,29.06,28.53,15,3,15,0.79
2014-4-8,66.9,50.4,41.5,53.5,41.9,37.2,92,73,62,29.00,28.73,12,3,12,0.00
2014-4-9,70.0,51.9,38.7,55.9,41.3,31.1,74,67,62,29.21,29.00,10,1,10,0.00
2014-4-10,81.0,61.8,46.6,65.3,49.2,36.2,67,64,59,29.21,29.00,23,7,23,0.00
2014-4-11,79.9,63.7,51.6,64.8,51.2,40.7,79,64,60,29.23,29.09,13,3,14,0.04
2014-4-12,84.0,66.5,51.1,68.0,53.3,40.1,66,63,59,29.29,29.03,17,4,17,0.00
2014-4-13,84.6,72.7,63.5,68.2,58.5,50.7,63,61,58,29.12,28.91,20,7,23,0.00
2014-4-14,70.7,60.6,35.6,57.1,50.4,31.5,94,70,62,28.97,28.82,23,7,23,0.16
2014-4-15,43.7,33.6,27.7,33.5,26.3,18.5,100,75,65,29.38,28.97,13,2,13,0.08
2014-4-16,60.6,40.6,23.0,48.4,30.5,14.5,70,67,64,29.53,29.38,13,2,13,0.00
2014-4-17,77.0,55.3,37.9,62.1,43.4,27.6,68,64,60,29.47,29.35,13,3,14,0.00
2014-4-18,77.0,60.3,46.4,61.9,47.9,36.0,67,64,60,29.44,29.32,9,1,9,0.00
2014-4-19,75.9,59.4,46.4,61.0,47.2,36.0,67,64,60,29.44,29.35,13,4,13,0.00
2014-4-20,89.1,70.6,48.7,72.4,56.7,37.9,66,62,58,29.38,29.23,10,1,10,0.00
2014-4-21,82.9,67.1,51.4,67.2,53.8,40.5,66,62,59,29.23,29.00,15,2,15,0.00
2014-4-22,71.8,60.5,42.3,57.7,48.6,32.5,69,65,61,29.12,28.91,13,4,13,0.00
2014-4-23,71.8,50.3,36.0,57.7,39.3,26.8,69,66,61,29.23,29.12,8,2,8,0.00
2014-4-24,77.2,57.4,46.8,62.2,45.5,36.4,67,64,60,29.23,28.91,11,3,11,0.00
2014-4-25,73.0,58.5,53.8,58.6,48.6,42.3,89,70,61,29.06,28.79,11,3,11,0.12
2014-4-26,83.1,66.1,53.1,67.3,52.9,42.0,66,63,59,29.09,29.00,15,4,15,0.08
2014-4-27,80.1,63.0,47.3,64.9,50.3,36.9,67,63,60,29.15,28.97,11,3,12,0.08
2014-4-28,72.9,61.0,50.0,60.8,52.4,41.8,100,74,64,29.03,28.76,15,3,16,0.87
2014-4-29,78.8,64.4,52.3,63.8,56.6,45.0,100,77,60,29.00,28.70,19,4,19,0.55
2014-4-30,73.8,59.9,50.9,59.5,50.8,40.7,92,73,61,29.03,28.88,11,3,11,0.28
2014-5-1,60.6,52.6,43.9,48.4,41.4,34.2,73,66,64,29.03,28.97,19,5,19,0.28
2014-5-2,64.0,52.5,44.4,51.2,41.3,34.3,68,66,63,29.03,28.97,11,3,12,0.00
2014-5-3,76.3,58.2,45.9,61.4,46.2,35.7,70,64,60,29.06,28.94,17,4,17,0.00
2014-5-4,77.7,63.0,50.9,62.7,50.3,39.8,66,63,60,29.15,29.03,12,4,12,0.00
2014-5-5,79.5,58.6,47.8,64.4,46.5,37.4,67,64,60,29.15,28.94,13,2,13,0.00
2014-5-6,81.9,63.0,48.0,66.0,50.3,37.4,67,63,59,29.09,29.00,11,2,11,0.00
2014-5-7,92.8,73.8,59.0,76.4,59.5,46.8,64,61,57,29.09,29.03,15,4,15,0.00
2014-5-8,92.7,76.3,65.1,76.1,61.6,52.2,63,60,57,29.18,29.09,19,4,19,0.00
2014-5-9,77.4,70.9,62.6,62.4,57.2,51.1,67,62,60,29.12,28.97,17,4,17,0.00
2014-5-10,75.2,65.4,60.3,61.4,55.8,50.9,80,71,63,29.12,29.03,11,2,11,0.04
2014-5-11,92.7,70.5,56.5,76.2,60.4,51.1,100,72,58,29.23,29.09,14,2,14,0.08
2014-5-12,93.0,75.2,62.4,76.6,63.7,54.3,100,68,59,29.18,29.06,14,3,17,0.35
2014-5-13,93.6,76.9,64.6,77.1,63.6,54.2,72,64,58,29.18,29.06,17,3,17,0.00
2014-5-14,81.9,65.5,60.8,67.6,59.1,54.9,100,80,62,29.18,28.94,17,1,17,1.30
2014-5-15,64.4,53.2,39.6,64.4,46.6,33.8,100,79,68,29.15,28.82,13,4,14,0.28
2014-5-16,63.9,47.4,38.5,51.0,40.1,33.0,100,76,63,29.12,29.03,17,1,17,0.08
2014-5-17,63.5,48.4,39.9,50.5,40.2,32.0,100,74,63,29.29,29.09,9,1,9,0.04
2014-5-18,79.5,54.2,37.8,64.3,43.8,31.6,84,69,60,29.32,29.26,7,0,7,0.00
2014-5-19,81.0,60.1,42.8,65.3,47.8,33.0,70,64,59,29.32,29.15,10,1,10,0.00
2014-5-20,79.5,68.8,56.1,64.5,55.3,44.5,65,62,60,29.18,29.03,14,2,15,0.00
2014-5-21,87.6,73.0,62.6,72.2,60.1,54.3,83,64,61,29.06,28.88,14,3,14,0.08
2014-5-22,86.5,70.8,62.1,70.0,59.5,49.8,86,68,58,29.12,28.97,15,3,15,0.04
2014-5-23,83.1,65.9,52.2,67.2,53.1,43.1,76,64,59,29.18,29.09,8,1,8,0.00
2014-5-24,85.8,67.1,50.0,69.2,54.6,41.9,79,65,58,29.23,29.15,8,0,8,0.00
2014-5-25,92.5,71.5,55.8,76.1,58.0,46.5,72,63,57,29.21,29.12,8,1,10,0.00
2014-5-26,91.0,74.8,57.4,75.1,61.4,48.0,74,64,58,29.18,29.03,11,1,12,0.00
2014-5-27,91.8,78.4,67.8,75.4,64.8,57.4,70,63,58,29.09,28.97,12,2,12,0.00
2014-5-28,91.8,76.3,66.0,75.4,63.2,56.4,74,64,58,29.06,28.97,11,2,13,0.00
2014-5-29,88.7,73.8,65.8,72.5,62.8,57.4,81,69,60,29.09,29.03,6,0,8,0.16
2014-5-30,92.5,73.9,61.3,76.1,60.6,51.5,85,63,57,29.18,29.09,9,1,9,0.00
2014-5-31,92.8,73.9,59.0,76.4,59.9,48.6,70,62,57,29.23,29.12,11,1,11,0.00
2014-6-1,95.9,75.8,60.4,79.3,62.9,49.1,82,65,58,29.18,29.06,15,1,15,0.35
2014-6-2,84.6,74.6,68.9,69.6,63.7,58.8,100,70,61,29.15,29.00,18,3,18,0.31
2014-6-3,88.3,75.2,68.5,72.7,66.1,60.9,100,75,60,29.03,28.94,13,3,13,0.04
2014-6-4,85.8,69.8,61.7,71.8,63.1,54.1,100,80,61,28.97,28.70,13,2,13,1.06
2014-6-5,84.2,68.2,57.0,68.2,56.5,48.5,82,67,58,29.00,28.85,9,1,10,0.00
2014-6-6,89.2,69.2,53.8,72.2,56.5,46.0,79,64,58,29.03,28.97,8,0,8,0.00
2014-6-7,92.3,73.0,56.3,75.9,59.0,45.7,71,62,57,29.06,28.85,10,1,10,0.00
2014-6-8,76.6,67.9,59.5,63.8,56.7,51.6,77,67,62,29.00,28.73,15,2,15,0.00
2014-6-9,80.6,66.9,57.6,65.4,56.2,51.8,88,69,60,29.00,28.91,9,0,9,0.00
2014-6-10,85.1,67.5,62.1,70.2,60.6,54.0,100,80,61,28.94,28.82,6,0,8,0.71
2014-6-11,79.7,68.4,64.6,65.5,62.1,58.6,100,81,62,28.85,28.76,10,1,13,0.24
2014-6-12,84.2,70.5,63.1,69.0,61.8,57.5,100,75,61,28.91,28.79,11,1,11,0.00
2014-6-13,83.7,69.0,57.6,67.8,57.1,45.5,80,66,59,29.06,28.85,8,1,8,0.00
2014-6-14,86.4,65.9,46.4,69.8,53.3,38.1,79,64,58,29.15,29.06,8,1,8,0.00
2014-6-15,93.7,73.4,54.3,77.1,60.5,46.4,77,64,58,29.12,29.00,13,2,13,0.00
2014-6-16,92.8,80.3,72.3,76.4,66.1,59.0,65,62,59,29.15,29.06,14,2,14,0.00
2014-6-17,96.4,82.1,71.6,79.8,67.9,59.8,67,62,59,29.12,29.00,17,3,17,0.00
2014-6-18,96.4,81.7,72.5,79.8,68.2,61.1,76,64,59,29.12,29.00,12,2,13,0.00
2014-6-19,90.5,76.5,68.4,74.7,65.4,58.7,97,70,60,29.12,29.03,10,2,10,0.08
2014-6-20,90.5,74.2,68.0,76.1,68.6,62.4,100,84,60,29.06,28.91,10,1,10,0.08
2014-6-21,92.7,76.5,68.2,76.2,67.5,58.2,100,76,58,29.00,28.91,8,0,8,0.00
2014-6-22,97.5,78.1,66.6,80.3,66.2,59.5,78,67,58,28.97,28.85,9,1,9,0.00
2014-6-23,95.5,78.9,68.2,78.9,68.9,61.1,100,73,59,28.97,28.88,27,2,27,0.16
2014-6-24,93.6,76.2,68.5,77.1,67.5,61.9,100,76,59,28.97,28.85,17,2,17,1.06
2014-6-25,92.8,73.7,67.6,76.4,67.4,61.1,100,82,59,29.03,28.88,11,0,11,0.12
2014-6-26,92.7,77.7,65.5,77.4,67.7,57.3,100,74,58,29.06,28.97,6,0,8,0.00
2014-6-27,94.5,78.4,66.0,77.9,66.2,57.6,79,67,58,29.09,29.03,8,1,9,0.00
2014-6-28,92.3,77.5,70.9,75.9,66.3,61.8,77,69,59,29.15,29.06,8,1,9,0.00
2014-6-29,91.9,77.4,70.0,75.6,66.4,63.0,82,69,59,29.12,29.00,12,2,12,0.00
2014-6-30,92.3,79.5,67.6,75.9,68.1,63.0,90,69,59,29.06,28.85,13,2,14,0.00
2014-7-1,96.1,80.3,67.8,79.4,69.8,60.5,100,72,59,28.91,28.79,16,3,16,0.75
2014-7-2,90.1,74.3,65.7,74.1,66.2,59.0,100,78,59,29.00,28.88,12,2,12,0.24
2014-7-3,75.4,65.6,55.6,61.9,55.9,46.0,99,71,60,29.15,29.00,10,1,10,0.00
2014-7-4,85.5,66.9,48.7,69.0,54.8,43.1,82,66,58,29.26,29.15,10,1,10,0.00
2014-7-5,91.0,70.2,55.2,73.5,57.0,46.4,74,63,57,29.29,29.12,8,1,8,0.00
2014-7-6,89.4,74.5,62.8,72.4,60.0,50.0,66,61,58,29.12,28.91,15,2,15,0.00
2014-7-7,90.1,77.2,69.3,74.4,63.8,57.0,76,63,60,28.91,28.79,18,5,19,0.00
2014-7-8,86.2,75.8,70.0,71.2,64.6,61.4,78,69,61,28.85,28.73,21,4,21,0.00
2014-7-9,91.2,74.7,64.2,75.2,62.3,54.3,79,66,57,29.00,28.85,11,1,11,0.00
2014-7-10,92.5,73.7,59.5,76.1,60.5,52.3,80,64,57,29.12,28.97,8,1,10,0.00
2014-7-11,92.8,75.5,59.5,76.4,61.8,50.1,74,63,57,29.15,29.06,8,0,9,0.00
2014-7-12,91.8,76.8,62.6,75.4,63.8,53.4,79,65,58,29.09,28.94,12,2,12,0.00
2014-7-13,92.8,78.5,71.6,76.4,67.4,62.4,100,70,59,28.94,28.82,13,2,13,0.16
2014-7-14,90.0,73.2,65.1,74.1,68.3,59.3,100,87,60,28.82,28.73,13,2,13,0.39
2014-7-15,76.1,67.0,55.8,66.4,57.3,46.7,100,72,60,28.82,28.70,13,2,13,0.00
2014-7-16,79.9,64.3,53.1,64.8,54.0,47.5,100,70,60,28.88,28.79,7,1,7,0.00
2014-7-17,84.9,66.3,52.5,68.5,55.2,47.4,88,68,58,28.97,28.85,6,0,8,0.00
2014-7-18,81.0,65.0,56.7,65.3,55.9,48.4,100,73,59,29.00,28.91,7,0,7,0.16
2014-7-19,76.3,68.5,62.1,67.3,61.3,58.3,100,79,63,28.91,28.85,5,0,5,0.04
2014-7-20,88.5,73.0,63.3,72.5,63.1,58.1,100,72,60,28.88,28.82,8,0,8,0.04
2014-7-21,95.2,76.9,63.3,78.6,66.8,60.0,100,73,58,28.94,28.85,6,0,6,0.04
2014-7-22,97.0,80.7,66.6,79.8,68.3,60.2,82,67,58,28.91,28.79,12,1,12,0.04
2014-7-23,88.0,73.7,66.7,72.5,64.5,61.4,93,74,60,28.88,28.73,11,1,11,0.24
2014-7-24,83.3,68.5,59.4,67.5,57.1,50.2,100,68,59,28.82,28.76,10,1,11,0.04
2014-7-25,84.7,69.3,52.5,68.2,57.0,46.4,82,65,58,28.85,28.70,9,1,9,0.04
2014-7-26,89.4,75.7,66.0,73.7,64.0,55.5,100,68,60,28.76,28.59,12,2,13,0.04
2014-7-27,81.9,73.0,68.9,73.4,66.8,57.0,100,82,63,28.61,28.44,12,2,14,0.31
2014-7-28,77.7,66.3,55.4,64.0,55.9,48.4,82,70,60,28.73,28.53,8,1,10,0.04
2014-7-29,79.0,63.2,50.2,63.9,53.4,46.9,100,72,60,28.76,28.70,8,1,8,0.04
2014-7-30,83.1,69.3,57.7,67.2,58.0,52.2,84,68,59,28.76,28.70,14,2,14,0.04
2014-7-31,89.4,72.9,60.8,73.7,60.8,53.5,82,66,58,28.79,28.73,10,1,10,0.04
2014-8-1,90.9,74.7,60.4,75.1,62.3,54.2,82,66,58,28.79,28.70,8,0,8,0.04
2014-8-2,85.8,71.2,59.4,70.2,60.4,51.9,100,70,58,28.79,28.73,15,0,15,1.46
2014-8-3,92.7,72.0,59.0,76.2,61.0,51.2,100,70,58,28.82,28.73,10,0,10,0.04
2014-8-4,94.8,74.4,58.3,78.3,61.4,50.2,81,65,58,28.82,28.70,8,0,8,0.04
2014-8-5,89.1,73.4,62.2,73.2,61.7,53.6,81,67,58,28.76,28.64,10,1,10,0.04
2014-8-6,85.1,73.9,64.9,70.2,62.6,57.9,81,68,61,28.70,28.61,6,0,7,0.04
2014-8-7,86.0,71.5,59.9,69.5,58.9,51.7,79,65,58,28.73,28.64,7,1,8,0.04
2014-8-8,80.8,71.2,66.2,66.1,58.6,54.3,74,64,59,28.67,17.72,9,1,9,0.00
2014-8-9,90.3,73.5,64.0,73.9,63.1,57.7,86,71,60,28.70,17.72,8,1,8,0.00
2014-8-10,88.9,76.4,69.3,73.2,66.4,61.9,100,72,60,17.72,17.72,8,1,8,0.08
2014-8-11,88.5,75.3,69.1,72.9,68.8,63.9,100,82,60,17.72,17.72,13,1,13,0.04
2014-8-12,81.7,69.6,62.2,69.3,61.7,53.5,100,77,59,17.72,17.72,15,2,15,0.00
2014-8-13,89.2,69.3,57.9,72.4,57.8,52.4,95,68,58,17.72,17.72,10,1,10,0.00
2014-8-14,88.0,72.0,59.9,71.2,60.0,50.3,95,67,58,17.72,17.72,9,1,9,0.00
2014-8-15,89.6,65.1,49.6,72.7,54.1,44.9,88,68,58,17.72,17.72,8,0,8,0.00
2014-8-16,82.6,68.0,51.8,67.8,56.5,44.4,82,67,59,17.72,17.72,10,1,13,0.00
2014-8-17,83.1,74.0,68.2,68.1,63.5,59.1,79,70,61,17.72,17.72,9,1,9,0.00
2014-8-18,97.5,77.1,68.7,80.3,66.7,61.8,88,71,58,17.72,17.72,8,0,8,0.00
2014-8-19,95.9,77.9,66.6,79.3,68.0,62.8,100,73,59,17.72,17.72,13,2,13,0.00
2014-8-20,88.0,74.1,64.2,73.8,66.0,59.5,100,78,60,17.72,17.72,13,2,13,0.59
2014-8-21,91.4,74.7,67.8,75.4,68.4,62.1,100,82,60,17.72,17.72,10,0,10,0.28
2014-8-22,90.5,76.2,68.9,75.7,70.2,66.2,100,84,60,17.72,17.72,10,0,10,0.35
2014-8-23,97.0,79.4,69.4,79.9,70.4,65.6,100,75,58,17.72,17.72,9,0,9,0.00
2014-8-24,99.3,80.1,70.7,81.9,70.0,62.5,100,73,58,17.72,17.72,6,0,6,0.00
2014-8-25,98.2,80.2,68.4,80.9,68.3,62.5,87,68,58,17.72,17.72,5,0,6,0.00
2014-8-26,96.6,81.0,68.2,79.8,68.2,61.2,81,66,59,17.72,17.72,6,0,6,0.00
2014-8-27,98.4,81.1,69.8,80.6,69.1,63.2,90,68,58,17.72,17.72,7,0,8,0.00
2014-8-28,94.1,77.0,66.9,77.6,65.5,57.1,96,69,59,17.72,17.72,8,0,8,0.00
2014-8-29,97.5,78.4,65.7,80.3,65.5,55.2,77,65,58,17.72,17.72,10,1,10,0.00
2014-8-30,92.1,77.1,70.7,75.7,66.9,60.6,87,72,59,17.72,17.72,10,1,10,0.04
2014-8-31,92.1,75.3,70.5,75.4,66.9,63.1,100,76,59,17.72,17.72,12,2,12,0.12
2014-9-1,89.2,77.4,70.3,74.5,68.0,64.8,90,73,60,17.72,17.72,17,3,17,0.08
2014-9-2,91.9,73.0,64.8,75.4,65.2,60.0,100,78,59,17.72,17.72,13,1,13,0.59
2014-9-3,100.6,75.6,63.1,82.8,66.3,57.6,100,75,58,17.72,17.72,6,0,6,0.00
2014-9-4,100.9,78.6,66.7,82.6,67.4,59.7,88,69,58,17.72,17.72,8,0,10,0.00
2014-9-5,98.6,82.2,70.9,80.8,70.3,62.6,91,68,58,17.72,17.72,13,1,14,0.00
2014-9-6,80.4,69.6,60.3,70.3,62.0,54.8,100,78,64,17.72,17.72,10,0,10,0.00
2014-9-7,89.4,67.5,56.7,71.9,57.5,47.9,100,72,58,17.72,17.72,9,1,9,0.00
2014-9-8,97.5,69.0,54.3,79.9,57.4,47.2,84,67,57,29.21,17.72,8,0,8,0.00
2014-9-9,95.0,71.6,54.7,78.1,59.8,49.6,85,67,56,29.26,29.15,9,0,9,0.00
2014-9-10,86.0,75.1,67.1,71.9,63.7,56.2,87,68,63,29.15,28.94,15,3,15,0.16
2014-9-11,76.6,65.9,54.7,68.7,60.0,49.0,100,83,63,29.32,28.97,11,1,11,0.79
2014-9-12,66.6,60.3,54.5,54.3,51.1,48.8,84,72,65,29.35,29.26,8,0,8,0.00
2014-9-13,77.2,59.3,47.1,62.2,49.6,39.3,83,71,60,29.47,29.26,10,1,10,0.00
2014-9-14,87.3,59.6,45.0,70.5,49.7,40.8,91,71,58,29.44,29.32,8,0,8,0.00
2014-9-15,75.0,59.9,47.7,65.1,52.1,43.1,100,77,61,29.35,29.15,10,0,10,0.12
2014-9-16,62.6,58.1,53.2,57.4,51.7,45.7,100,80,66,29.32,29.23,8,0,8,0.00
2014-9-17,79.5,56.4,46.9,64.4,48.9,42.4,100,77,60,29.24,29.12,6,0,8,0.00
2014-9-18,82.9,62.3,48.2,66.7,51.9,43.5,98,70,59,29.29,29.15,8,1,8,0.00
2014-9-19,88.9,64.1,48.6,72.2,53.0,42.3,92,68,58,29.32,29.23,9,1,10,0.00
2014-9-20,87.3,71.9,60.1,72.2,60.5,50.6,82,68,61,29.23,29.09,15,2,17,0.00
2014-9-21,80.4,69.6,53.6,65.3,57.8,44.8,77,66,60,29.21,28.97,13,3,13,0.00
2014-9-22,80.4,55.4,44.6,64.4,45.6,37.7,86,70,60,29.41,29.21,9,1,9,0.00
2014-9-23,85.6,59.5,44.2,69.0,49.3,39.4,100,70,58,29.50,29.41,10,0,10,0.00
2014-9-24,94.6,64.7,47.3,75.5,52.3,39.4,78,65,56,29.50,29.41,8,0,8,0.00
2014-9-25,96.4,67.8,48.2,79.8,55.2,40.1,77,65,56,29.47,29.35,6,0,6,0.00
2014-9-26,91.0,70.4,54.1,73.7,57.5,45.9,77,64,57,29.41,29.32,9,0,9,0.00
2014-9-27,94.6,70.3,56.8,75.7,58.0,48.7,81,66,56,29.38,29.29,10,0,10,0.00
2014-9-28,88.9,70.7,55.8,73.0,57.6,46.5,72,64,58,29.32,29.18,6,0,6,0.00
2014-9-29,91.9,71.5,58.3,74.5,59.6,46.2,98,67,57,29.18,29.09,8,0,8,0.00
2014-9-30,79.7,63.6,52.2,64.6,51.9,43.4,73,66,60,29.15,29.06,10,1,10,0.00
2014-10-1,82.0,61.2,45.5,66.3,51.0,40.4,100,70,59,29.21,29.12,6,0,7,0.00
2014-10-2,91.8,73.3,57.4,75.4,60.1,47.2,77,64,58,29.18,29.00,13,2,14,0.00
2014-10-3,73.8,64.0,44.4,61.1,54.2,37.8,91,71,61,29.00,28.79,19,4,19,0.16
2014-10-4,52.3,47.0,42.6,41.3,37.0,32.8,80,68,66,29.03,28.94,17,4,17,0.08
2014-10-5,65.5,50.9,40.3,52.1,39.9,30.6,68,66,63,29.06,28.88,13,3,16,0.08
2014-10-6,68.4,54.2,47.3,55.6,46.7,38.2,89,76,62,29.00,28.85,13,2,13,0.43
2014-10-7,61.9,54.6,47.7,58.8,50.7,44.7,100,87,70,29.03,28.88,12,0,12,0.28
2014-10-8,74.3,58.2,48.6,60.0,50.0,39.3,100,76,61,29.23,29.03,14,1,14,0.08
2014-10-9,58.8,53.5,47.1,47.9,44.5,38.3,77,72,67,29.29,29.21,5,0,5,0.08
2014-10-10,55.9,52.0,48.4,52.4,48.3,44.5,100,88,71,29.23,29.18,7,1,8,0.51
2014-10-11,62.8,52.9,44.8,50.0,45.1,35.2,100,76,63,29.32,29.18,10,1,10,0.08
2014-10-12,67.6,55.1,42.8,56.1,46.2,36.8,84,72,62,29.29,29.12,7,1,8,0.08
2014-10-13,79.9,68.8,59.2,66.2,61.1,55.3,100,78,62,29.18,28.91,15,3,17,0.08
2014-10-14,70.9,63.7,54.5,63.7,58.9,49.0,100,85,64,28.97,28.76,20,4,20,0.51
2014-10-15,61.3,54.9,51.6,52.3,50.0,47.1,94,84,69,28.94,28.91,10,0,10,0.16
2014-10-16,64.2,56.2,50.9,56.7,51.0,46.2,100,83,68,29.00,28.88,13,1,13,0.16
2014-10-17,75.0,60.0,49.8,60.7,50.3,44.7,92,71,61,29.00,28.82,15,4,15,0.16
2014-10-18,56.3,50.8,45.0,45.5,43.1,40.8,100,75,65,29.29,29.00,9,1,9,0.16
2014-10-19,65.3,50.6,44.1,52.2,42.9,36.0,100,76,63,29.38,29.21,9,0,9,0.16
2014-10-20,69.6,55.4,46.6,56.0,45.2,37.3,73,69,62,29.21,29.00,15,2,15,0.16
2014-10-21,58.3,50.8,45.9,46.7,42.2,36.0,86,73,64,29.32,29.06,10,1,10,0.16
2014-10-22,58.5,48.2,40.8,46.3,38.5,33.9,78,69,64,29.44,29.32,9,1,10,0.16
2014-10-23,67.8,50.2,36.1,54.2,40.7,31.5,85,70,62,29.41,29.26,6,0,6,0.16
2014-10-24,72.1,54.6,39.7,57.8,44.5,34.3,83,69,61,29.26,29.18,10,0,10,0.16
2014-10-25,76.8,62.1,51.1,61.7,50.5,40.1,74,66,60,29.18,29.06,11,2,11,0.16
2014-10-26,76.6,59.3,47.8,60.9,47.2,37.3,67,64,60,29.18,29.09,9,0,9,0.16
2014-10-27,83.5,66.6,50.5,67.7,53.3,39.6,66,63,59,29.12,29.00,17,3,17,0.16
2014-10-28,70.7,62.7,53.2,57.8,52.0,42.2,81,68,62,29.18,29.03,17,3,17,0.16
2014-10-29,61.2,51.2,42.1,48.9,40.3,32.3,72,66,64,29.26,29.18,13,2,13,0.16
2014-10-30,61.2,46.8,37.0,48.7,36.7,28.7,75,68,64,29.32,29.18,6,0,6,0.16
2014-10-31,46.6,40.6,34.7,39.0,34.0,27.6,88,77,68,29.18,29.06,15,2,15,0.16
2014-11-1,43.3,34.8,28.2,33.3,26.3,19.5,75,71,67,29.47,29.18,16,3,16,0.04
2014-11-2,56.3,37.2,22.3,44.7,28.0,16.5,78,69,65,29.59,29.47,6,0,6,0.00
2014-11-3,66.7,51.4,37.9,53.2,40.0,27.6,68,65,62,29.50,29.32,13,4,13,0.00
2014-11-4,68.4,56.2,50.7,54.7,46.8,39.8,100,72,62,29.35,29.21,16,5,16,0.08
2014-11-5,62.2,52.1,43.9,52.3,46.5,41.3,100,83,64,29.38,29.18,8,0,8,0.04
2014-11-6,52.9,47.7,40.6,52.5,42.2,33.0,100,82,66,29.21,28.97,14,5,14,0.00
2014-11-7,40.6,40.6,40.6,33.0,33.0,33.0,74,74,74,29.21,29.21,6,6,6,0.00
2014-11-8,49.5,49.5,49.5,38.6,38.6,38.6,66,66,66,29.03,29.03,5,4,5,0.00
2014-11-11,56.8,41.3,35.6,52.5,39.2,29.0,100,93,76,29.21,29.00,10,4,10,0.04
2014-11-12,42.4,34.8,30.4,32.5,26.1,21.8,77,70,67,29.41,29.18,10,2,10,0.00
2014-11-13,30.4,27.2,21.7,21.6,18.2,13.6,72,69,68,29.44,29.35,6,2,8,0.00
2014-11-14,39.7,26.0,19.8,29.3,18.0,12.4,83,71,66,29.50,29.41,9,1,9,0.00
2014-11-15,43.5,28.4,15.8,33.7,19.7,8.1,79,70,66,29.56,29.35,9,1,9,0.00
2014-11-16,34.3,31.0,30.0,30.9,24.0,21.6,92,75,68,29.38,29.03,9,0,9,0.04
2014-11-17,32.5,25.0,14.2,32.5,20.6,6.5,100,84,68,29.21,28.94,0,0,0,0.00
2014-11-18,27.0,16.9,11.1,17.8,9.0,3.9,72,71,68,29.38,29.21,17,3,17,0.00
2014-11-19,42.4,28.7,13.3,32.5,19.7,5.8,72,69,66,29.38,29.03,20,5,20,0.04
2014-11-20,33.8,26.4,21.9,24.0,17.5,13.6,70,69,67,29.38,29.18,14,4,14,0.00
2014-11-21,39.6,25.9,12.2,29.0,17.1,4.9,72,69,66,29.65,29.38,8,1,8,0.00
2014-11-22,63.3,43.6,27.0,50.3,33.4,17.6,74,67,63,29.50,29.21,16,4,16,0.04
2014-11-24,46.8,42.1,37.6,36.4,32.3,28.4,69,68,67,29.06,28.73,24,7,24,0.04
2014-11-25,47.5,36.1,29.1,36.7,27.4,22.7,78,70,67,29.32,29.06,13,3,13,0.04
2014-11-26,43.2,31.0,25.5,33.3,24.2,20.0,93,76,68,29.32,29.18,8,0,8,0.04
2014-11-27,34.3,29.0,26.1,24.4,20.9,17.5,78,71,67,29.50,29.21,10,3,11,0.04
2014-11-28,39.2,30.3,23.5,28.1,21.2,14.9,71,68,66,29.53,29.21,12,3,12,0.00
2014-11-29,55.8,44.9,32.2,45.0,34.6,22.5,68,67,65,29.23,29.00,17,6,17,0.00
2014-11-30,65.7,60.9,55.8,56.1,50.1,44.6,95,68,63,29.26,29.03,20,7,20,0.12
2014-12-1,61.9,36.7,28.4,57.6,33.1,20.0,100,87,70,29.65,29.21,10,2,10,0.51
2014-12-2,36.3,32.8,28.6,36.3,27.1,20.0,100,80,70,29.62,29.26,8,0,8,0.51
2014-12-3,43.5,34.4,28.6,36.3,30.6,23.1,100,86,68,29.50,29.26,16,3,16,0.51
2014-12-4,36.7,32.5,28.0,33.3,29.4,24.4,100,88,75,29.53,29.38,7,0,7,0.16
2014-12-5,48.4,40.4,34.0,48.4,40.3,33.0,100,100,96,29.41,29.18,6,0,6,0.83
2014-12-6,49.3,39.9,34.5,49.1,35.8,25.8,100,86,69,29.68,29.15,15,5,15,0.87
2014-12-7,46.0,35.3,27.9,35.5,26.6,22.3,82,71,67,29.71,29.47,10,3,10,0.71
2014-12-8,51.1,41.0,34.5,40.0,31.5,25.6,75,69,66,29.50,29.23,13,4,13,0.71
2014-12-9,43.5,38.1,35.4,36.6,33.6,29.0,93,84,75,29.38,29.21,10,2,10,0.71
2014-12-10,36.3,33.4,29.5,29.0,25.2,20.9,77,72,70,29.41,29.32,10,3,10,0.00
2014-12-11,42.4,32.2,25.9,32.5,23.8,18.5,78,71,66,29.38,29.29,10,2,10,0.00
2014-12-12,45.9,32.4,23.0,35.5,26.3,19.9,90,78,67,29.47,29.35,10,3,10,0.00
2014-12-13,44.6,40.0,34.5,35.1,32.1,28.2,85,73,67,29.44,29.32,7,2,10,0.00
2014-12-14,46.9,43.6,40.3,37.3,35.0,32.7,75,71,69,29.35,29.26,8,1,8,0.00
2014-12-15,54.0,45.1,41.4,42.5,35.9,32.7,77,70,65,29.26,28.94,15,2,15,0.00
2014-12-16,50.0,43.4,34.5,49.1,38.2,28.4,100,82,74,29.26,28.85,17,5,17,0.35
2014-12-17,34.7,30.0,25.0,28.7,22.9,17.9,85,74,70,29.41,29.23,13,4,13,0.00
2014-12-18,30.7,26.5,23.5,22.1,18.9,16.2,78,72,68,29.41,29.32,6,0,6,0.00
2014-12-19,32.2,27.6,22.6,23.5,20.4,17.4,86,74,70,29.44,29.35,5,0,5,0.00
2014-12-20,32.4,29.6,24.8,23.7,21.9,18.9,81,73,70,29.41,29.35,4,0,4,0.00
2014-12-21,42.1,29.5,21.2,32.1,23.4,17.9,88,78,68,29.44,29.23,8,1,8,0.00
2014-12-22,54.5,41.1,26.8,43.0,32.1,22.3,85,70,65,29.26,28.88,7,2,7,0.04
2014-12-23,54.9,51.4,44.8,54.9,50.4,37.0,100,96,77,28.97,28.82,10,1,10,0.16
2014-12-24,57.0,49.0,37.8,56.8,47.3,31.6,100,94,75,28.88,28.53,17,4,17,0.20
2014-12-25,40.8,37.2,32.7,33.4,30.5,27.7,87,77,68,29.32,28.88,15,4,15,0.04
2014-12-26,56.8,42.4,31.8,45.2,34.7,27.6,90,75,65,29.38,29.29,14,4,14,0.04
2014-12-27,50.5,45.9,40.6,47.1,39.3,30.9,100,78,66,29.35,29.21,13,3,13,0.24
2014-12-28,46.9,35.2,30.0,46.8,30.9,24.2,100,85,72,29.35,29.15,9,1,9,0.08
2014-12-29,38.1,29.7,26.1,28.7,23.3,18.1,90,77,69,29.50,29.32,9,2,9,0.00
2014-12-30,35.4,27.2,21.6,25.8,18.8,13.9,75,70,67,29.68,29.47,6,2,9,0.00
2014-12-31,29.8,20.3,11.8,20.4,12.2,4.6,73,70,68,29.68,29.44,12,3,13,0.00
2015-1-1,38.8,28.7,19.9,28.5,19.6,11.8,70,68,66,29.44,29.23,13,6,16,0.00
2015-1-2,42.4,34.9,30.0,32.6,26.1,20.8,74,70,68,29.47,29.32,9,2,9,0.00